sensor_id;sensor_type;location;lat;lon;timestamp;pressure;altitude;pressure_sealevel;temperature;humidity
49377;BME280;35253;34.688;33.040;2024-02-14T00:02:16;99849.38;;;19.51;100.00
49377;BME280;35253;34.688;33.040;2024-02-14T00:04:42;99837.88;;;19.49;100.00
49377;BME280;35253;34.688;33.040;2024-02-14T00:07:08;99833.13;;;19.43;100.00
49377;BME280;35253;34.688;33.040;2024-02-14T00:09:34;99832.16;;;19.44;100.00
49377;BME280;35253;34.688;33.040;2024-02-14T00:12:00;99820.78;;;19.40;100.00
49377;BME280;35253;34.688;33.040;2024-02-14T00:14:26;99815.72;;;19.37;100.00
49377;BME280;35253;34.688;33.040;2024-02-14T00:16:52;99807.59;;;19.29;100.00
49377;BME280;35253;34.688;33.040;2024-02-14T00:19:17;99802.69;;;19.32;100.00
49377;BME280;35253;34.688;33.040;2024-02-14T00:21:43;99793.06;;;19.30;100.00
49377;BME280;35253;34.688;33.040;2024-02-14T00:24:08;99794.59;;;19.41;100.00
49377;BME280;35253;34.688;33.040;2024-02-14T00:26:34;99777.72;;;19.39;100.00
49377;BME280;35253;34.688;33.040;2024-02-14T00:29:01;99766.56;;;19.33;100.00
49377;BME280;35253;34.688;33.040;2024-02-14T00:31:26;99756.09;;;19.30;100.00
49377;BME280;35253;34.688;33.040;2024-02-14T00:33:52;99757.09;;;19.38;100.00
49377;BME280;35253;34.688;33.040;2024-02-14T00:36:17;99742.38;;;19.32;100.00
49377;BME280;35253;34.688;33.040;2024-02-14T00:38:43;99718.56;;;19.27;100.00
49377;BME280;35253;34.688;33.040;2024-02-14T00:41:11;99698.47;;;19.22;100.00
49377;BME280;35253;34.688;33.040;2024-02-14T00:43:36;99681.09;;;19.24;100.00
49377;BME280;35253;34.688;33.040;2024-02-14T00:46:02;99651.91;;;19.04;100.00
49377;BME280;35253;34.688;33.040;2024-02-14T00:48:28;99638.03;;;18.99;100.00
49377;BME280;35253;34.688;33.040;2024-02-14T00:50:53;99587.75;;;18.81;100.00
49377;BME280;35253;34.688;33.040;2024-02-14T00:53:19;99652.53;;;18.65;100.00
49377;BME280;35253;34.688;33.040;2024-02-14T00:55:46;99687.97;;;18.70;100.00
49377;BME280;35253;34.688;33.040;2024-02-14T00:58:11;99731.03;;;18.80;100.00
49377;BME280;35253;34.688;33.040;2024-02-14T01:00:37;99809.09;;;18.23;100.00
49377;BME280;35253;34.688;33.040;2024-02-14T01:03:03;99809.72;;;18.17;100.00
49377;BME280;35253;34.688;33.040;2024-02-14T01:05:29;99815.81;;;18.19;100.00
49377;BME280;35253;34.688;33.040;2024-02-14T01:07:54;99818.69;;;18.26;100.00
49377;BME280;35253;34.688;33.040;2024-02-14T01:10:20;99792.75;;;18.59;100.00
49377;BME280;35253;34.688;33.040;2024-02-14T01:12:46;99798.88;;;18.69;100.00
49377;BME280;35253;34.688;33.040;2024-02-14T01:15:12;99817.59;;;18.70;100.00
49377;BME280;35253;34.688;33.040;2024-02-14T01:17:37;99821.84;;;18.73;100.00
49377;BME280;35253;34.688;33.040;2024-02-14T01:20:06;99822.69;;;18.47;100.00
49377;BME280;35253;34.688;33.040;2024-02-14T01:22:35;99807.78;;;18.35;100.00
49377;BME280;35253;34.688;33.040;2024-02-14T01:25:01;99797.09;;;18.26;100.00
49377;BME280;35253;34.688;33.040;2024-02-14T01:27:28;99793.63;;;18.33;100.00
49377;BME280;35253;34.688;33.040;2024-02-14T01:29:54;99784.72;;;18.07;100.00
49377;BME280;35253;34.688;33.040;2024-02-14T01:32:20;99787.78;;;18.12;100.00
49377;BME280;35253;34.688;33.040;2024-02-14T01:34:46;99780.06;;;17.91;100.00
49377;BME280;35253;34.688;33.040;2024-02-14T01:37:12;99777.38;;;17.66;100.00
49377;BME280;35253;34.688;33.040;2024-02-14T01:39:37;99776.91;;;17.70;100.00
49377;BME280;35253;34.688;33.040;2024-02-14T01:42:03;99778.22;;;17.66;100.00
49377;BME280;35253;34.688;33.040;2024-02-14T01:44:33;99785.31;;;17.32;100.00
49377;BME280;35253;34.688;33.040;2024-02-14T01:47:00;99776.09;;;17.17;100.00
49377;BME280;35253;34.688;33.040;2024-02-14T01:49:26;99771.63;;;17.07;100.00
49377;BME280;35253;34.688;33.040;2024-02-14T01:51:55;99774.03;;;16.93;100.00
49377;BME280;35253;34.688;33.040;2024-02-14T01:54:25;99770.16;;;17.13;100.00
49377;BME280;35253;34.688;33.040;2024-02-14T01:56:53;99764.78;;;16.95;100.00
49377;BME280;35253;34.688;33.040;2024-02-14T01:59:19;99767.97;;;16.63;100.00
49377;BME280;35253;34.688;33.040;2024-02-14T02:01:45;99772.31;;;16.92;100.00
49377;BME280;35253;34.688;33.040;2024-02-14T02:04:11;99761.16;;;17.22;100.00
49377;BME280;35253;34.688;33.040;2024-02-14T02:06:36;99766.00;;;17.19;100.00
49377;BME280;35253;34.688;33.040;2024-02-14T02:09:02;99778.31;;;17.21;100.00
49377;BME280;35253;34.688;33.040;2024-02-14T02:11:28;99770.63;;;17.26;100.00
49377;BME280;35253;34.688;33.040;2024-02-14T02:13:54;99757.00;;;17.28;100.00
49377;BME280;35253;34.688;33.040;2024-02-14T02:16:20;99758.72;;;17.29;100.00
49377;BME280;35253;34.688;33.040;2024-02-14T02:18:47;99750.84;;;17.18;100.00
49377;BME280;35253;34.688;33.040;2024-02-14T02:21:14;99752.53;;;17.19;100.00
49377;BME280;35253;34.688;33.040;2024-02-14T02:23:40;99749.53;;;17.22;100.00
49377;BME280;35253;34.688;33.040;2024-02-14T02:26:10;99751.63;;;17.28;100.00
49377;BME280;35253;34.688;33.040;2024-02-14T02:28:36;99753.78;;;17.24;100.00
49377;BME280;35253;34.688;33.040;2024-02-14T02:31:05;99758.47;;;17.22;100.00
49377;BME280;35253;34.688;33.040;2024-02-14T02:33:30;99754.25;;;17.20;100.00
49377;BME280;35253;34.688;33.040;2024-02-14T02:35:56;99765.56;;;17.23;100.00
49377;BME280;35253;34.688;33.040;2024-02-14T02:38:21;99773.47;;;17.25;100.00
49377;BME280;35253;34.688;33.040;2024-02-14T02:40:48;99775.69;;;17.29;100.00
49377;BME280;35253;34.688;33.040;2024-02-14T02:43:13;99776.41;;;17.13;100.00
49377;BME280;35253;34.688;33.040;2024-02-14T02:45:39;99778.25;;;17.13;100.00
49377;BME280;35253;34.688;33.040;2024-02-14T02:48:05;99778.94;;;17.15;100.00
49377;BME280;35253;34.688;33.040;2024-02-14T02:50:31;99782.31;;;17.17;100.00
49377;BME280;35253;34.688;33.040;2024-02-14T02:52:56;99782.63;;;17.14;100.00
49377;BME280;35253;34.688;33.040;2024-02-14T02:55:22;99785.25;;;17.06;100.00
49377;BME280;35253;34.688;33.040;2024-02-14T02:57:48;99782.31;;;17.17;100.00
49377;BME280;35253;34.688;33.040;2024-02-14T03:00:14;99777.41;;;17.12;100.00
49377;BME280;35253;34.688;33.040;2024-02-14T03:02:41;99775.88;;;17.10;100.00
49377;BME280;35253;34.688;33.040;2024-02-14T03:05:10;99772.78;;;17.05;100.00
49377;BME280;35253;34.688;33.040;2024-02-14T03:07:43;99773.84;;;17.12;100.00
49377;BME280;35253;34.688;33.040;2024-02-14T03:10:11;99785.09;;;17.25;100.00
49377;BME280;35253;34.688;33.040;2024-02-14T03:12:39;99787.88;;;16.98;100.00
49377;BME280;35253;34.688;33.040;2024-02-14T03:15:05;99779.81;;;16.98;100.00
49377;BME280;35253;34.688;33.040;2024-02-14T03:17:31;99784.16;;;16.99;100.00
49377;BME280;35253;34.688;33.040;2024-02-14T03:19:57;99788.41;;;17.01;100.00
49377;BME280;35253;34.688;33.040;2024-02-14T03:22:22;99784.47;;;16.78;100.00
49377;BME280;35253;34.688;33.040;2024-02-14T03:24:48;99785.97;;;16.81;100.00
49377;BME280;35253;34.688;33.040;2024-02-14T03:27:14;99786.94;;;16.72;100.00
49377;BME280;35253;34.688;33.040;2024-02-14T03:29:39;99786.63;;;16.75;100.00
49377;BME280;35253;34.688;33.040;2024-02-14T03:32:06;99786.63;;;16.75;100.00
49377;BME280;35253;34.688;33.040;2024-02-14T03:34:33;99789.47;;;16.09;100.00
49377;BME280;35253;34.688;33.040;2024-02-14T03:37:03;99801.41;;;15.87;100.00
49377;BME280;35253;34.688;33.040;2024-02-14T03:39:30;99804.78;;;15.99;100.00
49377;BME280;35253;34.688;33.040;2024-02-14T03:41:56;99809.56;;;16.05;100.00
49377;BME280;35253;34.688;33.040;2024-02-14T03:44:25;99817.63;;;16.14;100.00
49377;BME280;35253;34.688;33.040;2024-02-14T03:46:50;99822.84;;;16.06;100.00
49377;BME280;35253;34.688;33.040;2024-02-14T03:49:16;99832.28;;;15.83;100.00
49377;BME280;35253;34.688;33.040;2024-02-14T03:51:42;99830.25;;;15.95;100.00
49377;BME280;35253;34.688;33.040;2024-02-14T03:54:07;99844.31;;;15.69;100.00
49377;BME280;35253;34.688;33.040;2024-02-14T03:56:33;99843.84;;;15.93;100.00
49377;BME280;35253;34.688;33.040;2024-02-14T03:58:59;99848.34;;;16.02;100.00
49377;BME280;35253;34.688;33.040;2024-02-14T04:01:25;99846.19;;;16.15;100.00
49377;BME280;35253;34.688;33.040;2024-02-14T04:03:50;99833.56;;;16.26;100.00
49377;BME280;35253;34.688;33.040;2024-02-14T04:06:16;99844.84;;;16.39;100.00
49377;BME280;35253;34.688;33.040;2024-02-14T04:08:44;99839.56;;;16.10;100.00
49377;BME280;35253;34.688;33.040;2024-02-14T04:11:10;99848.91;;;16.06;100.00
49377;BME280;35253;34.688;33.040;2024-02-14T04:13:38;99857.44;;;15.92;100.00
49377;BME280;35253;34.688;33.040;2024-02-14T04:16:04;99849.59;;;16.08;100.00
49377;BME280;35253;34.688;33.040;2024-02-14T04:18:30;99859.91;;;16.22;100.00
49377;BME280;35253;34.688;33.040;2024-02-14T04:20:55;99849.56;;;16.27;100.00
49377;BME280;35253;34.688;33.040;2024-02-14T04:23:21;99860.72;;;16.32;100.00
49377;BME280;35253;34.688;33.040;2024-02-14T04:25:47;99866.38;;;16.29;100.00
49377;BME280;35253;34.688;33.040;2024-02-14T04:28:13;99872.03;;;16.36;100.00
49377;BME280;35253;34.688;33.040;2024-02-14T04:30:39;99863.03;;;16.17;100.00
49377;BME280;35253;34.688;33.040;2024-02-14T04:33:07;99875.50;;;16.09;100.00
49377;BME280;35253;34.688;33.040;2024-02-14T04:35:33;99874.22;;;16.13;100.00
49377;BME280;35253;34.688;33.040;2024-02-14T04:37:59;99876.63;;;16.06;100.00
49377;BME280;35253;34.688;33.040;2024-02-14T04:40:24;99870.72;;;15.93;100.00
49377;BME280;35253;34.688;33.040;2024-02-14T04:42:50;99876.63;;;16.06;100.00
49377;BME280;35253;34.688;33.040;2024-02-14T04:45:16;99879.06;;;15.90;100.00
49377;BME280;35253;34.688;33.040;2024-02-14T04:47:41;99873.28;;;15.95;100.00
49377;BME280;35253;34.688;33.040;2024-02-14T04:50:08;99874.13;;;15.76;100.00
49377;BME280;35253;34.688;33.040;2024-02-14T04:52:33;99881.22;;;15.77;100.00
49377;BME280;35253;34.688;33.040;2024-02-14T04:54:59;99882.34;;;15.74;100.00
49377;BME280;35253;34.688;33.040;2024-02-14T04:57:25;99890.38;;;15.84;100.00
49377;BME280;35253;34.688;33.040;2024-02-14T04:59:50;99901.56;;;15.99;100.00
49377;BME280;35253;34.688;33.040;2024-02-14T05:02:17;99903.81;;;15.94;100.00
49377;BME280;35253;34.688;33.040;2024-02-14T05:04:42;99907.22;;;16.05;100.00
49377;BME280;35253;34.688;33.040;2024-02-14T05:07:08;99908.78;;;15.89;100.00
49377;BME280;35253;34.688;33.040;2024-02-14T05:09:34;99912.91;;;15.93;100.00
49377;BME280;35253;34.688;33.040;2024-02-14T05:11:59;99919.28;;;15.92;100.00
49377;BME280;35253;34.688;33.040;2024-02-14T05:14:25;99914.56;;;15.94;100.00
49377;BME280;35253;34.688;33.040;2024-02-14T05:16:51;99929.84;;;15.93;100.00
49377;BME280;35253;34.688;33.040;2024-02-14T05:19:17;99928.16;;;16.02;100.00
49377;BME280;35253;34.688;33.040;2024-02-14T05:21:42;99933.53;;;16.11;100.00
49377;BME280;35253;34.688;33.040;2024-02-14T05:24:08;99939.19;;;16.18;100.00
49377;BME280;35253;34.688;33.040;2024-02-14T05:26:34;99935.50;;;16.19;100.00
49377;BME280;35253;34.688;33.040;2024-02-14T05:29:00;99936.06;;;16.22;100.00
49377;BME280;35253;34.688;33.040;2024-02-14T05:31:43;99937.19;;;16.20;100.00
49377;BME280;35253;34.688;33.040;2024-02-14T05:34:08;99949.94;;;16.28;100.00
49377;BME280;35253;34.688;33.040;2024-02-14T05:36:35;99953.84;;;16.43;100.00
49377;BME280;35253;34.688;33.040;2024-02-14T05:39:02;99957.25;;;16.45;100.00
49377;BME280;35253;34.688;33.040;2024-02-14T05:41:27;99957.09;;;16.46;100.00
49377;BME280;35253;34.688;33.040;2024-02-14T05:43:53;99963.59;;;16.53;100.00
49377;BME280;35253;34.688;33.040;2024-02-14T05:46:19;99972.25;;;16.66;100.00
49377;BME280;35253;34.688;33.040;2024-02-14T05:48:46;99969.66;;;16.75;100.00
49377;BME280;35253;34.688;33.040;2024-02-14T05:51:13;99966.50;;;16.89;100.00
49377;BME280;35253;34.688;33.040;2024-02-14T05:53:39;99969.28;;;16.97;100.00
49377;BME280;35253;34.688;33.040;2024-02-14T05:56:05;99973.16;;;17.12;100.00
49377;BME280;35253;34.688;33.040;2024-02-14T05:58:30;99975.66;;;17.23;100.00
49377;BME280;35253;34.688;33.040;2024-02-14T06:00:57;99974.22;;;17.29;100.00
49377;BME280;35253;34.688;33.040;2024-02-14T06:03:23;99978.84;;;17.36;100.00
49377;BME280;35253;34.688;33.040;2024-02-14T06:05:48;99979.25;;;17.41;100.00
49377;BME280;35253;34.688;33.040;2024-02-14T06:08:14;99991.25;;;17.47;100.00
49377;BME280;35253;34.688;33.040;2024-02-14T06:10:39;100000.81;;;17.41;100.00
49377;BME280;35253;34.688;33.040;2024-02-14T06:13:05;99994.81;;;17.47;100.00
49377;BME280;35253;34.688;33.040;2024-02-14T06:15:31;99998.28;;;17.57;100.00
49377;BME280;35253;34.688;33.040;2024-02-14T06:17:56;100000.56;;;17.62;100.00
49377;BME280;35253;34.688;33.040;2024-02-14T06:20:23;100005.09;;;17.62;100.00
49377;BME280;35253;34.688;33.040;2024-02-14T06:22:48;100004.66;;;17.66;100.00
49377;BME280;35253;34.688;33.040;2024-02-14T06:25:14;100005.50;;;17.67;100.00
49377;BME280;35253;34.688;33.040;2024-02-14T06:27:41;100005.91;;;17.72;100.00
49377;BME280;35253;34.688;33.040;2024-02-14T06:30:08;100006.59;;;17.74;100.00
49377;BME280;35253;34.688;33.040;2024-02-14T06:32:33;100007.38;;;17.84;100.00
49377;BME280;35253;34.688;33.040;2024-02-14T06:34:59;100019.53;;;17.88;100.00
49377;BME280;35253;34.688;33.040;2024-02-14T06:37:24;100024.63;;;17.91;100.00
49377;BME280;35253;34.688;33.040;2024-02-14T06:39:50;100023.56;;;18.01;100.00
49377;BME280;35253;34.688;33.040;2024-02-14T06:42:16;100028.50;;;18.06;100.00
49377;BME280;35253;34.688;33.040;2024-02-14T06:44:42;100036.09;;;17.75;100.00
49377;BME280;35253;34.688;33.040;2024-02-14T06:47:08;100031.78;;;18.00;100.00
49377;BME280;35253;34.688;33.040;2024-02-14T06:49:33;100042.91;;;18.15;100.00
49377;BME280;35253;34.688;33.040;2024-02-14T06:51:59;100045.59;;;18.32;100.00
49377;BME280;35253;34.688;33.040;2024-02-14T06:54:25;100049.41;;;18.47;100.00
49377;BME280;35253;34.688;33.040;2024-02-14T06:56:50;100035.41;;;18.62;100.00
49377;BME280;35253;34.688;33.040;2024-02-14T06:59:16;100044.94;;;18.74;100.00
49377;BME280;35253;34.688;33.040;2024-02-14T07:01:41;100043.72;;;18.51;100.00
49377;BME280;35253;34.688;33.040;2024-02-14T07:04:07;100035.19;;;18.37;100.00
49377;BME280;35253;34.688;33.040;2024-02-14T07:06:33;100047.00;;;18.54;100.00
49377;BME280;35253;34.688;33.040;2024-02-14T07:08:58;100040.88;;;18.34;100.00
49377;BME280;35253;34.688;33.040;2024-02-14T07:11:24;100044.53;;;18.25;100.00
49377;BME280;35253;34.688;33.040;2024-02-14T07:13:49;100046.66;;;18.39;100.00
49377;BME280;35253;34.688;33.040;2024-02-14T07:16:15;100050.06;;;18.41;100.00
49377;BME280;35253;34.688;33.040;2024-02-14T07:18:41;100054.53;;;18.51;100.00
49377;BME280;35253;34.688;33.040;2024-02-14T07:21:06;100060.16;;;18.39;100.00
49377;BME280;35253;34.688;33.040;2024-02-14T07:23:32;100063.78;;;18.30;100.00
49377;BME280;35253;34.688;33.040;2024-02-14T07:25:59;100060.31;;;18.02;100.00
49377;BME280;35253;34.688;33.040;2024-02-14T07:28:26;100060.72;;;17.90;100.00
49377;BME280;35253;34.688;33.040;2024-02-14T07:30:52;100072.13;;;17.74;100.00
49377;BME280;35253;34.688;33.040;2024-02-14T07:33:17;100073.66;;;17.59;100.00
49377;BME280;35253;34.688;33.040;2024-02-14T07:35:43;100077.31;;;17.68;100.00
49377;BME280;35253;34.688;33.040;2024-02-14T07:38:08;100077.00;;;17.71;100.00
49377;BME280;35253;34.688;33.040;2024-02-14T07:40:34;100076.28;;;17.69;100.00
49377;BME280;35253;34.688;33.040;2024-02-14T07:43:00;100077.78;;;17.81;100.00
49377;BME280;35253;34.688;33.040;2024-02-14T07:45:26;100074.28;;;17.98;100.00
49377;BME280;35253;34.688;33.040;2024-02-14T07:47:52;100075.34;;;18.05;100.00
49377;BME280;35253;34.688;33.040;2024-02-14T07:50:18;100084.63;;;18.20;100.00
49377;BME280;35253;34.688;33.040;2024-02-14T07:52:44;100081.00;;;18.12;100.00
49377;BME280;35253;34.688;33.040;2024-02-14T07:55:11;100076.97;;;18.51;100.00
49377;BME280;35253;34.688;33.040;2024-02-14T07:57:38;100081.22;;;18.54;100.00
49377;BME280;35253;34.688;33.040;2024-02-14T08:00:08;100078.91;;;18.59;100.00
49377;BME280;35253;34.688;33.040;2024-02-14T08:02:34;100076.97;;;18.51;100.00
49377;BME280;35253;34.688;33.040;2024-02-14T08:05:01;100085.94;;;18.52;100.00
49377;BME280;35253;34.688;33.040;2024-02-14T08:07:27;100082.94;;;18.55;100.00
49377;BME280;35253;34.688;33.040;2024-02-14T08:09:52;100075.22;;;18.60;100.00
49377;BME280;35253;34.688;33.040;2024-02-14T08:12:18;100080.16;;;18.46;100.00
49377;BME280;35253;34.688;33.040;2024-02-14T08:14:44;100075.75;;;18.45;100.00
49377;BME280;35253;34.688;33.040;2024-02-14T08:17:10;100074.44;;;18.67;100.00
49377;BME280;35253;34.688;33.040;2024-02-14T08:19:36;100072.91;;;18.65;100.00
49377;BME280;35253;34.688;33.040;2024-02-14T08:22:01;100078.63;;;18.87;100.00
49377;BME280;35253;34.688;33.040;2024-02-14T08:24:27;100074.25;;;18.86;100.00
49377;BME280;35253;34.688;33.040;2024-02-14T08:26:54;100072.38;;;18.87;100.00
49377;BME280;35253;34.688;33.040;2024-02-14T08:29:20;100077.97;;;18.68;100.00
49377;BME280;35253;34.688;33.040;2024-02-14T08:31:46;100071.41;;;18.70;100.00
49377;BME280;35253;34.688;33.040;2024-02-14T08:34:14;100068.41;;;18.73;100.00
49377;BME280;35253;34.688;33.040;2024-02-14T08:36:39;100068.78;;;18.61;100.00
49377;BME280;35253;34.688;33.040;2024-02-14T08:39:07;100066.91;;;18.79;100.00
49377;BME280;35253;34.688;33.040;2024-02-14T08:41:34;100062.41;;;18.87;100.00
49377;BME280;35253;34.688;33.040;2024-02-14T08:43:59;100071.72;;;18.67;100.00
49377;BME280;35253;34.688;33.040;2024-02-14T08:46:25;100077.53;;;18.55;100.00
49377;BME280;35253;34.688;33.040;2024-02-14T08:48:51;100080.81;;;18.66;100.00
49377;BME280;35253;34.688;33.040;2024-02-14T08:51:17;100083.38;;;18.68;100.00
49377;BME280;35253;34.688;33.040;2024-02-14T08:53:46;100080.03;;;18.74;100.00
49377;BME280;35253;34.688;33.040;2024-02-14T08:56:12;100083.38;;;18.68;100.00
49377;BME280;35253;34.688;33.040;2024-02-14T08:58:38;100077.44;;;18.64;100.00
49377;BME280;35253;34.688;33.040;2024-02-14T09:01:03;100082.69;;;18.66;100.00
49377;BME280;35253;34.688;33.040;2024-02-14T09:03:29;100085.91;;;18.69;100.00
49377;BME280;35253;34.688;33.040;2024-02-14T09:05:57;100076.38;;;18.57;100.00
49377;BME280;35253;34.688;33.040;2024-02-14T09:08:23;100084.88;;;18.88;100.00
49377;BME280;35253;34.688;33.040;2024-02-14T09:10:50;100078.91;;;19.02;100.00
49377;BME280;35253;34.688;33.040;2024-02-14T09:13:15;100080.56;;;18.95;100.00
49377;BME280;35253;34.688;33.040;2024-02-14T09:15:42;100086.63;;;18.54;100.00
49377;BME280;35253;34.688;33.040;2024-02-14T09:18:08;100081.81;;;18.65;100.00
49377;BME280;35253;34.688;33.040;2024-02-14T09:20:33;100091.41;;;18.60;100.00
49377;BME280;35253;34.688;33.040;2024-02-14T09:23:00;100093.00;;;18.70;100.00
49377;BME280;35253;34.688;33.040;2024-02-14T09:25:25;100090.94;;;18.46;100.00
49377;BME280;35253;34.688;33.040;2024-02-14T09:27:51;100094.59;;;18.55;100.00
49377;BME280;35253;34.688;33.040;2024-02-14T09:30:17;100096.47;;;18.27;100.00
49377;BME280;35253;34.688;33.040;2024-02-14T09:32:46;100091.88;;;18.37;100.00
49377;BME280;35253;34.688;33.040;2024-02-14T09:35:13;100103.19;;;18.41;100.00
49377;BME280;35253;34.688;33.040;2024-02-14T09:37:39;100085.53;;;18.46;100.00
49377;BME280;35253;34.688;33.040;2024-02-14T09:40:07;100087.78;;;18.16;100.00
49377;BME280;35253;34.688;33.040;2024-02-14T09:43:08;100099.13;;;18.55;100.00
49377;BME280;35253;34.688;33.040;2024-02-14T09:45:36;100090.03;;;18.56;100.00
49377;BME280;35253;34.688;33.040;2024-02-14T09:48:02;100083.22;;;18.52;100.00
49377;BME280;35253;34.688;33.040;2024-02-14T09:50:29;100083.50;;;18.48;100.00
49377;BME280;35253;34.688;33.040;2024-02-14T09:52:57;100091.16;;;18.71;100.00
49377;BME280;35253;34.688;33.040;2024-02-14T09:55:23;100091.47;;;18.68;100.00
49377;BME280;35253;34.688;33.040;2024-02-14T09:57:50;100085.78;;;18.53;100.00
49377;BME280;35253;34.688;33.040;2024-02-14T10:00:17;100081.44;;;18.78;100.00
49377;BME280;35253;34.688;33.040;2024-02-14T10:02:43;100095.94;;;18.77;100.00
49377;BME280;35253;34.688;33.040;2024-02-14T10:05:08;100078.28;;;18.47;100.00
49377;BME280;35253;34.688;33.040;2024-02-14T10:07:41;100093.94;;;18.43;100.00
49377;BME280;35253;34.688;33.040;2024-02-14T10:10:08;100078.59;;;18.44;100.00
49377;BME280;35253;34.688;33.040;2024-02-14T10:12:33;100082.13;;;18.80;100.00
49377;BME280;35253;34.688;33.040;2024-02-14T10:14:59;100082.22;;;18.53;100.00
49377;BME280;35253;34.688;33.040;2024-02-14T10:17:27;100090.88;;;18.38;100.00
49377;BME280;35253;34.688;33.040;2024-02-14T10:22:22;100082.00;;;18.64;100.00
49377;BME280;35253;34.688;33.040;2024-02-14T10:24:48;100068.66;;;18.88;100.00
49377;BME280;35253;34.688;33.040;2024-02-14T10:27:15;100086.22;;;18.66;100.00
49377;BME280;35253;34.688;33.040;2024-02-14T10:29:40;100070.84;;;18.84;100.00
49377;BME280;35253;34.688;33.040;2024-02-14T10:32:07;100071.97;;;19.00;100.00
49377;BME280;35253;34.688;33.040;2024-02-14T10:34:33;100071.41;;;18.96;100.00
49377;BME280;35253;34.688;33.040;2024-02-14T10:37:01;100069.09;;;18.75;100.00
49377;BME280;35253;34.688;33.040;2024-02-14T10:39:29;100064.44;;;18.85;100.00
49377;BME280;35253;34.688;33.040;2024-02-14T10:41:57;100083.22;;;18.52;100.00
49377;BME280;35253;34.688;33.040;2024-02-14T10:44:22;100062.41;;;18.62;100.00
49377;BME280;35253;34.688;33.040;2024-02-14T10:46:48;100075.88;;;18.79;100.00
49377;BME280;35253;34.688;33.040;2024-02-14T10:49:17;100070.81;;;18.59;100.00
49377;BME280;35253;34.688;33.040;2024-02-14T10:51:47;100064.00;;;18.98;100.00
49377;BME280;35253;34.688;33.040;2024-02-14T10:54:14;100071.97;;;19.00;100.00
49377;BME280;35253;34.688;33.040;2024-02-14T10:56:45;100061.22;;;19.08;100.00
49377;BME280;35253;34.688;33.040;2024-02-14T10:59:16;100064.31;;;19.21;100.00
49377;BME280;35253;34.688;33.040;2024-02-14T11:01:43;100071.22;;;19.15;100.00
49377;BME280;35253;34.688;33.040;2024-02-14T11:04:09;100067.69;;;19.23;100.00
49377;BME280;35253;34.688;33.040;2024-02-14T11:06:48;100081.03;;;19.16;100.00
49377;BME280;35253;34.688;33.040;2024-02-14T11:09:18;100066.53;;;19.25;100.00
49377;BME280;35253;34.688;33.040;2024-02-14T11:11:47;100078.75;;;19.38;100.00
49377;BME280;35253;34.688;33.040;2024-02-14T11:14:18;100065.88;;;19.31;100.00
49377;BME280;35253;34.688;33.040;2024-02-14T11:16:47;100059.47;;;19.32;100.00
49377;BME280;35253;34.688;33.040;2024-02-14T11:19:13;100070.63;;;19.63;100.00
49377;BME280;35253;34.688;33.040;2024-02-14T11:21:47;100073.09;;;19.49;100.00
49377;BME280;35253;34.688;33.040;2024-02-14T11:24:15;100076.41;;;19.76;100.00
49377;BME280;35253;34.688;33.040;2024-02-14T11:26:47;100074.19;;;19.64;100.00
49377;BME280;35253;34.688;33.040;2024-02-14T11:29:15;100072.88;;;19.84;100.00
49377;BME280;35253;34.688;33.040;2024-02-14T11:31:41;100069.19;;;19.93;100.00
49377;BME280;35253;34.688;33.040;2024-02-14T11:34:11;100074.47;;;20.03;100.00
49377;BME280;35253;34.688;33.040;2024-02-14T11:36:39;100080.59;;;19.63;100.00
49377;BME280;35253;34.688;33.040;2024-02-14T11:39:06;100083.31;;;19.71;100.00
49377;BME280;35253;34.688;33.040;2024-02-14T11:41:33;100072.13;;;19.58;100.00
49377;BME280;35253;34.688;33.040;2024-02-14T11:44:03;100071.75;;;19.53;100.00
49377;BME280;35253;34.688;33.040;2024-02-14T11:46:34;100083.06;;;19.90;100.00
49377;BME280;35253;34.688;33.040;2024-02-14T11:49:01;100073.94;;;19.49;100.00
49377;BME280;35253;34.688;33.040;2024-02-14T11:51:33;100085.88;;;19.72;100.00
49377;BME280;35253;34.688;33.040;2024-02-14T11:54:01;100091.94;;;20.24;100.00
49377;BME280;35253;34.688;33.040;2024-02-14T11:56:35;100091.31;;;20.31;100.00
49377;BME280;35253;34.688;33.040;2024-02-14T11:59:07;100100.94;;;20.41;100.00
49377;BME280;35253;34.688;33.040;2024-02-14T12:01:35;100098.97;;;20.01;100.00
49377;BME280;35253;34.688;33.040;2024-02-14T12:04:05;100102.56;;;19.60;100.00
49377;BME280;35253;34.688;33.040;2024-02-14T12:06:35;100111.50;;;19.52;100.00
49377;BME280;35253;34.688;33.040;2024-02-14T12:09:05;100117.47;;;19.72;100.00
49377;BME280;35253;34.688;33.040;2024-02-14T12:11:32;100106.66;;;19.72;100.00
49377;BME280;35253;34.688;33.040;2024-02-14T12:14:06;100123.16;;;19.35;100.00
49377;BME280;35253;34.688;33.040;2024-02-14T12:16:34;100121.97;;;19.29;100.00
49377;BME280;35253;34.688;33.040;2024-02-14T12:19:08;100114.69;;;19.48;100.00
49377;BME280;35253;34.688;33.040;2024-02-14T12:21:36;100129.94;;;19.57;100.00
49377;BME280;35253;34.688;33.040;2024-02-14T12:24:09;100121.84;;;19.65;100.00
49377;BME280;35253;34.688;33.040;2024-02-14T12:26:36;100120.13;;;19.30;100.00
49377;BME280;35253;34.688;33.040;2024-02-14T12:29:03;100120.09;;;19.48;100.00
49377;BME280;35253;34.688;33.040;2024-02-14T12:31:32;100125.25;;;19.41;100.00
49377;BME280;35253;34.688;33.040;2024-02-14T12:33:59;100130.78;;;19.40;100.00
49377;BME280;35253;34.688;33.040;2024-02-14T12:36:30;100131.41;;;19.25;100.00